Time;durP1;ratioP1;P1;durP2;ratioP2;P2;SDS_P1;SDS_P2;PMS_P1;PMS_P2;Temp;Humidity;BMP_temperature;BMP_pressure;BME280_temperature;BME280_humidity;BME280_pressure;Samples;Min_cycle;Max_cycle;Signal;HPM_P1;HPM_P2
2022/07/05 00:01:08;;;;;;;3.88;3.53;;;;;;;16.78;65.74;101890.06;3568472;40;20053;-62
2022/07/05 00:03:34;;;;;;;6.38;4.32;;;;;;;16.68;65.66;101878.97;3569998;40;20074;-62
2022/07/05 00:06:00;;;;;;;3.97;3.05;;;;;;;16.70;65.75;101888.75;3569365;40;20045;-62
2022/07/05 00:08:26;;;;;;;4.78;3.90;;;;;;;16.65;66.21;101881.91;3571626;40;20055;-62
2022/07/05 00:10:52;;;;;;;4.50;3.60;;;;;;;16.63;65.78;101887.44;3566915;40;20052;-62
2022/07/05 00:13:17;;;;;;;5.65;3.67;;;;;;;16.57;65.86;101873.44;3571657;40;20088;-62
2022/07/05 00:15:43;;;;;;;4.68;3.58;;;;;;;16.59;65.83;101876.94;3573875;40;20295;-62
2022/07/05 00:18:08;;;;;;;4.57;3.88;;;;;;;16.56;66.31;101874.44;3570127;40;20057;-61
2022/07/05 00:20:34;;;;;;;7.90;3.75;;;;;;;16.50;66.26;101875.72;3572639;40;20073;-62
2022/07/05 00:23:00;;;;;;;4.93;3.65;;;;;;;16.44;66.52;101879.72;3570769;40;20055;-62
2022/07/05 00:25:26;;;;;;;4.80;3.60;;;;;;;16.36;66.45;101875.81;3568482;40;20052;-62
2022/07/05 00:27:53;;;;;;;5.85;4.20;;;;;;;16.37;66.56;101878.44;3573532;40;20057;-63
2022/07/05 00:30:19;;;;;;;7.35;3.97;;;;;;;16.33;66.75;101886.88;3574690;40;20140;-62
2022/07/05 00:32:45;;;;;;;5.18;3.92;;;;;;;15.98;66.67;101833.19;3573951;40;20049;-62
2022/07/05 00:35:11;;;;;;;5.88;3.90;;;;;;;16.24;66.94;101880.25;3573352;40;20049;-63
2022/07/05 00:37:37;;;;;;;5.53;3.90;;;;;;;16.19;67.48;101882.41;3575648;40;20044;-62
2022/07/05 00:40:04;;;;;;;4.38;3.97;;;;;;;16.17;67.27;101881.63;3570188;40;20056;-62
2022/07/05 00:42:31;;;;;;;4.75;4.15;;;;;;;16.16;67.76;101879.91;3570452;40;20119;-62
2022/07/05 00:44:56;;;;;;;5.40;4.78;;;;;;;16.06;68.04;101876.94;3569749;40;20108;-62
2022/07/05 00:47:23;;;;;;;7.07;4.90;;;;;;;15.97;68.65;101881.16;3569882;40;20045;-62
2022/07/05 00:49:48;;;;;;;7.57;4.85;;;;;;;15.90;68.98;101873.56;3572068;40;20133;-62
2022/07/05 00:52:15;;;;;;;6.50;5.13;;;;;;;15.90;69.79;101871.69;3573031;40;20402;-62
2022/07/05 00:54:42;;;;;;;5.28;4.38;;;;;;;15.82;70.71;101876.75;3572815;40;20332;-63
2022/07/05 00:57:07;;;;;;;5.07;4.18;;;;;;;15.68;71.28;101861.44;3572449;40;20055;-62
2022/07/05 00:59:34;;;;;;;7.15;4.10;;;;;;;15.71;71.40;101882.03;3571316;40;20073;-62
2022/07/05 01:02:00;;;;;;;5.75;4.50;;;;;;;15.68;70.70;101876.81;3574621;40;20481;-62
2022/07/05 01:04:26;;;;;;;5.40;3.97;;;;;;;15.65;70.76;101877.84;3567941;40;20065;-62
2022/07/05 01:06:53;;;;;;;6.13;4.57;;;;;;;15.61;70.72;101879.03;3570804;40;20087;-62
2022/07/05 01:09:21;;;;;;;5.60;4.40;;;;;;;15.56;70.60;101876.63;3572626;40;20078;-62
2022/07/05 01:11:49;;;;;;;5.85;4.65;;;;;;;15.51;70.70;101875.22;3572218;40;20366;-63
2022/07/05 01:14:21;;;;;;;5.78;4.50;;;;;;;15.46;70.52;101878.22;3575600;40;20388;-62
2022/07/05 01:16:50;;;;;;;6.50;4.70;;;;;;;15.47;70.63;101876.34;3579860;40;20067;-62
2022/07/05 01:19:17;;;;;;;6.57;4.82;;;;;;;15.43;70.83;101882.97;3569672;40;20052;-63
2022/07/05 01:21:48;;;;;;;5.57;4.88;;;;;;;15.44;70.88;101879.28;3573449;40;20065;-62
2022/07/05 01:24:18;;;;;;;5.47;4.95;;;;;;;15.41;70.60;101883.03;3565816;40;20098;-64
2022/07/05 01:26:48;;;;;;;8.80;5.47;;;;;;;15.36;70.31;101885.19;3576894;40;20387;-63
2022/07/05 01:29:14;;;;;;;9.60;5.25;;;;;;;15.22;70.60;101860.84;3571805;40;20065;-64
2022/07/05 01:31:40;;;;;;;7.82;4.97;;;;;;;15.30;71.04;101877.47;3561836;40;20466;-64
2022/07/05 01:34:07;;;;;;;7.82;5.40;;;;;;;14.99;70.33;101830.69;3573335;40;20047;-63
2022/07/05 01:36:36;;;;;;;7.85;5.85;;;;;;;15.19;71.27;101878.19;3571406;40;20061;-63
2022/07/05 01:39:05;;;;;;;6.78;5.50;;;;;;;15.17;71.16;101884.66;3576462;40;20057;-64
2022/07/05 01:41:31;;;;;;;7.60;5.88;;;;;;;15.11;70.95;101876.91;3569768;40;20076;-63
2022/07/05 01:43:59;;;;;;;7.80;6.20;;;;;;;15.03;71.20;101878.28;3574391;40;20052;-63
2022/07/05 01:46:32;;;;;;;6.55;5.65;;;;;;;14.97;72.09;101884.09;3576792;40;20295;-63
2022/07/05 01:49:02;;;;;;;;;;;;;;;14.94;71.59;101877.97;3577497;40;20059;-63
2022/07/05 01:51:55;;;;;;;8.38;5.47;;;;;;;14.97;71.53;101880.50;3572533;40;19949;-63
2022/07/05 01:54:21;;;;;;;7.00;5.18;;;;;;;14.97;71.48;101875.97;3570530;40;20299;-65
2022/07/05 01:56:47;;;;;;;7.10;5.30;;;;;;;14.96;72.04;101878.75;3572064;40;20045;-63
2022/07/05 01:59:13;;;;;;;7.53;5.93;;;;;;;14.89;71.76;101869.28;3571834;40;20048;-63
2022/07/05 02:01:40;;;;;;;6.25;5.40;;;;;;;14.85;72.39;101876.75;3569837;40;20056;-63
2022/07/05 02:04:09;;;;;;;6.45;5.82;;;;;;;14.85;72.92;101871.34;3570089;40;20341;-63
2022/07/05 02:06:35;;;;;;;7.05;5.57;;;;;;;14.79;73.25;101867.16;3565168;40;20459;-63
2022/07/05 02:09:06;;;;;;;6.30;5.32;;;;;;;14.80;73.33;101868.03;3569441;40;20363;-62
2022/07/05 02:11:31;;;;;;;6.68;5.20;;;;;;;14.76;73.13;101863.78;3567998;40;20076;-62
2022/07/05 02:13:58;;;;;;;8.18;5.82;;;;;;;14.82;72.71;101866.97;3567069;40;20071;-63
2022/07/05 02:16:26;;;;;;;6.50;5.07;;;;;;;14.55;73.10;101830.81;3568948;40;20145;-63
2022/07/05 02:18:52;;;;;;;6.18;5.43;;;;;;;14.70;73.07;101866.88;3566972;40;20100;-62
2022/07/05 02:21:18;;;;;;;6.00;5.38;;;;;;;14.54;73.14;101865.13;3568403;40;20061;-62
2022/07/05 02:23:43;;;;;;;6.57;5.93;;;;;;;14.58;73.95;101869.38;3569848;40;20068;-63
2022/07/05 02:26:09;;;;;;;6.88;5.90;;;;;;;14.54;74.12;101875.94;3566797;40;20057;-63
2022/07/05 02:28:35;;;;;;;6.38;5.78;;;;;;;14.47;74.08;101865.56;3571129;40;20064;-63
2022/07/05 02:31:00;;;;;;;10.15;6.18;;;;;;;14.45;74.27;101870.19;3571843;40;20057;-62
2022/07/05 02:33:26;;;;;;;9.70;6.65;;;;;;;14.45;74.40;101865.66;3569744;40;20368;-62
2022/07/05 02:35:52;;;;;;;8.27;6.32;;;;;;;14.42;74.22;101865.84;3569638;40;20061;-63
2022/07/05 02:38:17;;;;;;;12.70;6.82;;;;;;;14.42;74.19;101871.25;3567520;40;20056;-62
2022/07/05 02:40:43;;;;;;;9.32;6.85;;;;;;;14.43;73.80;101870.31;3562551;40;20053;-62
2022/07/05 02:43:08;;;;;;;11.00;6.35;;;;;;;14.45;73.42;101873.75;3566691;40;20056;-63
2022/07/05 02:45:34;;;;;;;11.48;6.72;;;;;;;14.49;73.54;101879.84;3572714;40;20134;-62
2022/07/05 02:48:00;;;;;;;13.90;6.95;;;;;;;14.47;73.44;101874.56;3568928;40;20049;-62
2022/07/05 02:50:25;;;;;;;12.80;6.05;;;;;;;14.48;73.29;101873.56;3572091;40;20052;-63
2022/07/05 02:52:51;;;;;;;14.55;6.47;;;;;;;14.47;73.33;101873.69;3571115;40;20060;-63
2022/07/05 02:55:16;;;;;;;17.30;6.72;;;;;;;14.43;73.74;101881.13;3572777;40;20055;-64
2022/07/05 02:57:42;;;;;;;14.45;6.25;;;;;;;14.39;73.62;101879.53;3571681;40;20068;-63
2022/07/05 03:00:08;;;;;;;14.32;7.13;;;;;;;14.34;74.12;101881.69;3569776;40;20084;-62
2022/07/05 03:02:34;;;;;;;13.25;6.80;;;;;;;14.29;74.05;101884.66;3574981;40;20114;-62
2022/07/05 03:05:00;;;;;;;11.43;6.93;;;;;;;13.09;74.21;101682.81;3571726;40;20061;-62
2022/07/05 03:07:25;;;;;;;13.15;7.38;;;;;;;14.25;74.04;101888.50;3570962;40;20075;-62
2022/07/05 03:09:51;;;;;;;12.07;7.60;;;;;;;14.22;74.46;101882.41;3572678;40;20052;-62
2022/07/05 03:12:16;;;;;;;12.38;6.97;;;;;;;14.20;74.64;101890.59;3573604;40;20064;-63
2022/07/05 03:14:42;;;;;;;8.95;6.57;;;;;;;14.18;74.68;101887.16;3569117;40;20063;-62
2022/07/05 03:17:08;;;;;;;10.77;7.40;;;;;;;14.20;74.52;101895.16;3574064;40;20044;-62
2022/07/05 03:19:33;;;;;;;11.93;7.57;;;;;;;14.11;74.61;101875.84;3572465;40;20049;-63
2022/07/05 03:21:59;;;;;;;13.65;7.43;;;;;;;14.24;74.59;101902.09;3567486;40;20660;-62
2022/07/05 03:24:24;;;;;;;11.38;7.57;;;;;;;14.25;73.74;101903.88;3569953;40;20295;-62
2022/07/05 03:26:50;;;;;;;10.30;7.50;;;;;;;14.24;73.78;101902.09;3571577;40;20060;-62
2022/07/05 03:29:16;;;;;;;9.50;7.57;;;;;;;14.26;73.33;101901.06;3570024;40;20060;-63
2022/07/05 03:31:41;;;;;;;9.00;7.68;;;;;;;14.30;72.98;101905.34;3568219;40;20111;-63
2022/07/05 03:34:07;;;;;;;10.77;7.70;;;;;;;14.26;73.10;101906.47;3568761;40;20075;-63
2022/07/05 03:36:33;;;;;;;8.68;7.55;;;;;;;14.26;72.99;101911.00;3571103;40;20049;-62
2022/07/05 03:38:58;;;;;;;10.30;7.80;;;;;;;14.27;73.13;101901.94;3569858;40;20068;-62
2022/07/05 03:41:24;;;;;;;15.38;8.00;;;;;;;14.31;72.75;101911.63;3572565;40;20057;-62
2022/07/05 03:43:49;;;;;;;8.65;7.72;;;;;;;14.30;72.84;101908.06;3572350;40;20394;-63
2022/07/05 03:46:15;;;;;;;9.88;7.70;;;;;;;14.33;72.56;101918.66;3574791;40;20068;-63
2022/07/05 03:48:40;;;;;;;8.98;7.15;;;;;;;14.36;72.48;101909.50;3575297;40;20067;-62
2022/07/05 03:51:06;;;;;;;8.68;7.38;;;;;;;14.39;72.59;101907.47;3573503;40;20075;-63
2022/07/05 03:53:32;;;;;;;8.40;7.60;;;;;;;14.38;72.41;101907.56;3571065;40;20096;-64
2022/07/05 03:55:57;;;;;;;9.40;8.05;;;;;;;14.39;72.41;101915.59;3571582;40;20044;-63
2022/07/05 03:58:23;;;;;;;9.80;7.55;;;;;;;14.36;72.33;101915.75;3572447;40;20044;-63
2022/07/05 04:00:48;;;;;;;12.30;8.50;;;;;;;14.39;73.12;101918.28;3571326;40;20123;-63
2022/07/05 04:03:14;;;;;;;9.35;7.70;;;;;;;14.43;72.96;101929.81;3574601;40;20059;-63
2022/07/05 04:05:39;;;;;;;8.73;7.88;;;;;;;14.47;72.57;101925.09;3570774;40;20045;-63
2022/07/05 04:08:05;;;;;;;9.05;8.13;;;;;;;14.53;72.60;101928.31;3569993;40;20048;-63
2022/07/05 04:10:31;;;;;;;10.23;7.55;;;;;;;14.57;71.84;101921.75;3573755;40;20055;-64
2022/07/05 04:12:56;;;;;;;10.25;7.93;;;;;;;14.63;72.01;101929.50;3574749;40;20088;-62
2022/07/05 04:15:22;;;;;;;8.70;7.80;;;;;;;14.72;72.32;101929.91;3573699;40;20059;-63
2022/07/05 04:17:54;;;;;;;8.77;7.25;;;;;;;14.78;72.04;101929.50;3570142;40;20179;-63
2022/07/05 04:20:24;;;;;;;9.80;7.95;;;;;;;14.78;71.80;101924.09;3569513;40;20127;-63
2022/07/05 04:22:51;;;;;;;11.23;7.78;;;;;;;14.86;71.92;101929.91;3570822;40;20057;-63
2022/07/05 04:25:18;;;;;;;8.85;7.40;;;;;;;14.91;71.45;101941.34;3570220;40;20055;-63
2022/07/05 04:27:51;;;;;;;9.95;7.75;;;;;;;14.97;71.88;101934.63;3568348;40;20068;-63
2022/07/05 04:30:19;;;;;;;;;;;;;;;15.02;71.39;101927.13;3570998;40;20048;-63
2022/07/05 04:32:46;;;;;;;11.02;8.57;;;;;;;15.03;71.28;101935.16;3571574;40;19949;-63
2022/07/05 04:35:13;;;;;;;10.85;8.90;;;;;;;15.06;71.45;101937.69;3571840;40;20069;-63
2022/07/05 04:37:40;;;;;;;11.93;8.52;;;;;;;15.08;71.19;101932.16;3572031;40;20327;-63
2022/07/05 04:40:10;;;;;;;9.20;8.30;;;;;;;15.16;70.87;101928.94;3569437;40;20064;-63
2022/07/05 04:42:36;;;;;;;10.75;8.60;;;;;;;15.12;70.92;101917.44;3571037;40;20057;-63
2022/07/05 04:45:02;;;;;;;11.85;8.75;;;;;;;15.23;70.93;101935.72;3573396;40;20068;-63
2022/07/05 04:47:28;;;;;;;9.75;8.75;;;;;;;15.24;71.48;101932.03;3571031;40;20060;-63
2022/07/05 04:49:57;;;;;;;10.32;9.25;;;;;;;15.31;71.33;101930.69;3570804;40;20137;-63
2022/07/05 04:52:23;;;;;;;11.25;9.52;;;;;;;15.39;71.80;101936.47;3572329;40;20121;-63
2022/07/05 04:54:49;;;;;;;9.73;8.75;;;;;;;15.45;70.67;101929.81;3571670;40;20130;-63
2022/07/05 04:57:14;;;;;;;9.65;8.60;;;;;;;15.52;70.00;101929.28;3572355;40;20383;-63
2022/07/05 04:59:40;;;;;;;9.43;8.40;;;;;;;15.59;70.37;101931.59;3571449;40;20067;-63
2022/07/05 05:02:05;;;;;;;11.15;8.85;;;;;;;15.68;70.26;101937.31;3573339;40;20052;-63
2022/07/05 05:04:31;;;;;;;9.85;8.75;;;;;;;15.75;70.82;101932.38;3569189;40;20079;-63
2022/07/05 05:06:58;;;;;;;13.48;8.95;;;;;;;15.82;69.96;101938.25;3573970;40;20115;-63
2022/07/05 05:09:24;;;;;;;10.75;8.52;;;;;;;15.86;70.05;101937.97;3573269;40;20059;-63
2022/07/05 05:11:49;;;;;;;9.20;8.35;;;;;;;15.94;70.06;101932.88;3572043;40;20072;-64
2022/07/05 05:14:15;;;;;;;11.13;9.02;;;;;;;16.01;69.67;101934.19;3572047;40;20083;-63
2022/07/05 05:16:41;;;;;;;10.48;8.75;;;;;;;15.91;69.41;101913.25;3571417;40;20052;-63
2022/07/05 05:19:07;;;;;;;10.50;9.45;;;;;;;16.16;69.26;101947.72;3568467;40;20053;-63
2022/07/05 05:21:32;;;;;;;10.88;9.30;;;;;;;16.19;68.55;101947.53;3570497;40;20074;-64
2022/07/05 05:23:58;;;;;;;10.70;8.90;;;;;;;16.26;67.95;101940.69;3572530;40;20149;-63
2022/07/05 05:26:24;;;;;;;13.57;10.07;;;;;;;16.28;68.32;101949.59;3573240;40;20065;-63
2022/07/05 05:28:50;;;;;;;11.57;9.63;;;;;;;16.36;68.79;101947.22;3570839;40;20161;-63
2022/07/05 05:31:17;;;;;;;12.55;9.70;;;;;;;16.42;68.31;101945.94;3572584;40;20060;-63
2022/07/05 05:33:43;;;;;;;11.15;10.05;;;;;;;16.48;68.01;101957.25;3569724;40;20061;-64
2022/07/05 05:36:09;;;;;;;11.98;9.90;;;;;;;16.55;68.21;101962.25;3563529;40;20059;-63
2022/07/05 05:38:35;;;;;;;11.82;9.80;;;;;;;16.64;67.24;101959.78;3572010;40;20401;-63
2022/07/05 05:41:00;;;;;;;10.43;9.32;;;;;;;16.72;67.15;101970.13;3568332;40;20068;-63
2022/07/05 05:43:26;;;;;;;11.25;10.07;;;;;;;16.81;67.56;101972.22;3570511;40;20087;-63
2022/07/05 05:45:52;;;;;;;13.82;10.40;;;;;;;16.87;67.30;101960.94;3572100;40;20061;-63
2022/07/05 05:48:18;;;;;;;10.70;9.18;;;;;;;16.94;67.27;101967.66;3571813;40;20075;-63
2022/07/05 05:50:44;;;;;;;10.65;9.57;;;;;;;17.02;66.18;101960.81;3571097;40;20741;-63
2022/07/05 05:53:09;;;;;;;13.52;9.70;;;;;;;17.14;65.80;101968.09;3570676;40;20053;-64
2022/07/05 05:55:35;;;;;;;11.93;9.50;;;;;;;17.21;65.34;101966.66;3569931;40;20084;-62
2022/07/05 05:58:20;;;;;;;10.48;9.38;;;;;;;17.24;66.19;101969.16;3572305;40;20055;-63
2022/07/05 06:00:52;;;;;;;11.55;9.50;;;;;;;17.35;66.37;101971.13;3566095;40;20122;-62
2022/07/05 06:03:23;;;;;;;10.90;9.80;;;;;;;17.44;65.73;101980.44;3572122;40;20053;-61
2022/07/05 06:05:50;;;;;;;12.57;9.32;;;;;;;17.26;64.59;101933.75;3570017;40;20056;-61
2022/07/05 06:08:15;;;;;;;10.90;9.73;;;;;;;17.54;64.87;101976.09;3571883;40;20149;-62
2022/07/05 06:10:41;;;;;;;13.73;10.65;;;;;;;17.39;64.83;101946.31;3570406;40;20414;-61
2022/07/05 06:13:11;;;;;;;14.35;11.95;;;;;;;17.64;64.07;101971.72;3573057;40;20053;-61
2022/07/05 06:15:38;;;;;;;15.27;12.20;;;;;;;17.71;63.52;101978.44;3571145;40;20068;-61
2022/07/05 06:18:04;;;;;;;16.90;13.30;;;;;;;17.80;65.14;101988.69;3571715;40;20058;-61
2022/07/05 06:20:36;;;;;;;16.48;13.13;;;;;;;17.89;64.50;101984.41;3569800;40;20358;-63
2022/07/05 06:23:04;;;;;;;15.77;13.25;;;;;;;17.94;63.99;101984.06;3571342;40;20053;-63
2022/07/05 06:25:32;;;;;;;16.60;13.27;;;;;;;17.99;62.23;101981.88;3571586;40;20052;-63
2022/07/05 06:28:03;;;;;;;15.88;12.98;;;;;;;18.11;63.43;101994.56;3569436;40;20053;-63
2022/07/05 06:30:31;;;;;;;15.88;11.55;;;;;;;18.18;62.89;101990.41;3571196;40;20410;-61
2022/07/05 06:32:58;;;;;;;12.43;10.82;;;;;;;18.25;61.88;101993.53;3572112;40;20069;-61
2022/07/05 06:35:24;;;;;;;16.38;11.13;;;;;;;18.33;62.15;101994.69;3572802;40;20116;-61
2022/07/05 06:37:58;;;;;;;12.05;9.93;;;;;;;18.39;62.08;101993.31;3569691;40;20740;-61
2022/07/05 06:40:31;;;;;;;15.23;10.38;;;;;;;18.43;61.34;102003.00;3561583;40;20322;-63
2022/07/05 06:43:00;;;;;;;12.97;9.60;;;;;;;18.32;61.30;101970.28;3570129;40;20373;-63
2022/07/05 06:45:26;;;;;;;10.27;8.43;;;;;;;18.56;60.43;102005.66;3568169;40;20053;-61
2022/07/05 06:48:06;;;;;;;11.05;8.90;;;;;;;18.50;59.61;101984.34;3568438;40;20385;-61
2022/07/05 06:50:36;;;;;;;9.35;8.45;;;;;;;18.59;60.46;101999.97;3566769;40;20053;-61
2022/07/05 06:53:03;;;;;;;11.48;9.27;;;;;;;18.59;60.43;101994.53;3571437;40;20388;-63
2022/07/05 06:55:29;;;;;;;10.85;8.23;;;;;;;18.70;60.37;102007.31;3570734;40;20041;-63
2022/07/05 06:58:06;;;;;;;12.43;8.77;;;;;;;18.66;60.15;101998.50;3567173;40;20072;-63
2022/07/05 07:00:34;;;;;;;10.52;8.68;;;;;;;18.70;60.87;102000.00;3569227;40;20086;-61
2022/07/05 07:03:01;;;;;;;9.63;8.50;;;;;;;18.60;61.04;102000.84;3568366;40;20073;-62
2022/07/05 07:05:27;;;;;;;9.80;8.35;;;;;;;18.72;60.97;102002.63;3571261;40;20049;-63
2022/07/05 07:10:38;;;;;;;11.82;8.82;;;;;;;19.24;61.38;101999.41;3565639;40;20131;-63
2022/07/05 07:13:04;;;;;;;10.52;8.82;;;;;;;19.54;59.75;102005.25;3568345;40;20300;-62
2022/07/05 07:15:30;;;;;;;10.40;7.72;;;;;;;19.42;59.92;101963.47;3570301;40;20083;-61
2022/07/05 07:17:57;;;;;;;9.82;7.35;;;;;;;19.86;59.07;102008.13;3567970;40;20434;-62
2022/07/05 07:20:24;;;;;;;7.97;7.05;;;;;;;19.89;59.34;102000.53;3567027;40;20481;-61
2022/07/05 07:22:49;;;;;;;9.13;6.97;;;;;;;20.06;59.98;102007.31;3570095;40;20902;-62
2022/07/05 07:25:15;;;;;;;12.65;7.07;;;;;;;20.17;59.16;102009.13;3568655;40;20048;-62
2022/07/05 07:27:46;;;;;;;9.18;7.13;;;;;;;20.23;59.26;102013.22;3566854;40;20292;-61
2022/07/05 07:30:22;;;;;;;10.45;7.07;;;;;;;20.07;58.99;101976.28;3566960;40;20045;-61
2022/07/05 07:32:48;;;;;;;11.00;6.90;;;;;;;20.33;59.55;102012.34;3566806;40;21551;-63
2022/07/05 07:35:14;;;;;;;10.82;6.90;;;;;;;20.30;58.93;102011.75;3569107;40;20052;-62
2022/07/05 07:37:40;;;;;;;8.90;6.38;;;;;;;20.27;58.84;102012.00;3567044;40;20354;-63
2022/07/05 07:40:07;;;;;;;11.82;7.10;;;;;;;20.34;59.74;102018.66;3568147;40;20048;-61
2022/07/05 07:42:33;;;;;;;13.52;7.05;;;;;;;20.38;59.72;102022.88;3569755;40;20130;-62
2022/07/05 07:45:03;;;;;;;9.95;6.57;;;;;;;20.11;59.98;101979.66;3570701;40;20080;-60
2022/07/05 07:47:31;;;;;;;10.75;6.97;;;;;;;20.37;60.63;102021.13;3570840;40;20049;-60
2022/07/05 07:49:56;;;;;;;9.35;7.00;;;;;;;20.24;60.69;102004.91;3569980;40;20057;-62
2022/07/05 07:52:22;;;;;;;8.50;6.32;;;;;;;20.42;60.86;102024.34;3569300;40;20392;-61
2022/07/05 07:54:48;;;;;;;11.73;6.53;;;;;;;20.44;61.66;102014.16;3570021;40;20055;-61
2022/07/05 07:57:13;;;;;;;12.18;6.75;;;;;;;20.58;59.96;102016.63;3567235;40;20420;-61
2022/07/05 07:59:39;;;;;;;13.45;6.30;;;;;;;20.73;60.69;102027.22;3570101;40;20075;-61
2022/07/05 08:02:05;;;;;;;11.77;6.70;;;;;;;20.79;59.76;102024.81;3566962;40;20057;-62
2022/07/05 08:04:30;;;;;;;12.98;6.80;;;;;;;20.21;58.61;101911.47;3566791;40;20057;-63
2022/07/05 08:06:56;;;;;;;15.05;6.97;;;;;;;20.87;59.59;102040.59;3571964;40;20070;-62
2022/07/05 08:09:21;;;;;;;15.20;7.78;;;;;;;20.85;59.19;102032.50;3572713;40;20053;-61
2022/07/05 08:11:48;;;;;;;11.45;7.40;;;;;;;20.88;59.73;102025.91;3570734;40;20049;-63
2022/07/05 08:14:16;;;;;;;12.38;7.00;;;;;;;20.94;59.07;102033.56;3569112;40;20056;-64
2022/07/05 08:16:42;;;;;;;15.02;7.60;;;;;;;21.02;59.20;102028.28;3569910;40;20406;-64
2022/07/05 08:21:51;;;;;;;14.52;7.95;;;;;;;21.06;59.60;102037.13;3571574;40;20615;-64
2022/07/05 08:24:17;;;;;;;13.25;7.68;;;;;;;21.20;58.95;102041.38;3570771;40;20052;-61
2022/07/05 08:26:43;;;;;;;14.23;8.32;;;;;;;21.38;57.95;102030.72;3570179;40;20065;-61
2022/07/05 08:29:13;;;;;;;16.10;9.15;;;;;;;21.51;58.41;102029.50;3571207;40;20059;-62
2022/07/05 08:31:49;;;;;;;13.27;8.18;;;;;;;21.59;57.10;102038.88;3569577;40;20053;-62
2022/07/05 08:34:17;;;;;;;12.38;7.43;;;;;;;21.66;56.71;102032.72;3571398;40;20061;-64
2022/07/05 08:36:45;;;;;;;12.73;8.50;;;;;;;21.66;56.59;102029.09;3570646;40;20318;-65
2022/07/05 08:39:12;;;;;;;12.13;7.85;;;;;;;21.71;58.27;102014.00;3570256;40;20130;-65
2022/07/05 08:41:42;;;;;;;13.55;7.57;;;;;;;22.09;56.28;102027.97;3568698;40;20067;-64
2022/07/05 08:44:18;;;;;;;10.10;6.75;;;;;;;21.95;55.00;101991.75;3562499;40;20421;-64
2022/07/05 08:46:46;;;;;;;12.00;6.40;;;;;;;22.30;54.92;102034.22;3568182;40;21615;-67
2022/07/05 08:49:14;;;;;;;10.35;7.18;;;;;;;22.40;55.06;102032.38;3570608;40;20150;-67
2022/07/05 08:51:42;;;;;;;8.57;6.22;;;;;;;22.47;53.65;102028.03;3567624;40;20044;-67
2022/07/05 08:54:12;;;;;;;10.00;6.68;;;;;;;22.48;53.70;102029.75;3572352;40;20104;-67
2022/07/05 08:56:41;;;;;;;10.40;6.93;;;;;;;22.36;54.72;102030.94;3568560;40;20572;-67
2022/07/05 08:59:07;;;;;;;10.07;7.60;;;;;;;22.24;55.06;102026.59;3570556;40;20071;-66
2022/07/05 09:01:35;;;;;;;13.90;8.48;;;;;;;22.39;54.32;102024.28;3572335;40;20292;-66
2022/07/05 09:04:05;;;;;;;11.65;7.10;;;;;;;22.74;53.88;102015.50;3576697;40;20053;-64
2022/07/05 09:06:35;;;;;;;11.52;6.40;;;;;;;23.32;52.41;102026.38;3573685;40;20059;-64
2022/07/05 09:09:03;;;;;;;12.55;6.50;;;;;;;23.64;49.42;102028.72;3567469;40;20045;-64
2022/07/05 09:11:41;;;;;;;12.00;5.00;;;;;;;23.76;48.02;102026.69;3570098;40;20625;-64
2022/07/05 09:14:21;;;;;;;10.75;4.75;;;;;;;23.82;48.06;102026.09;3571966;40;20044;-64
2022/07/05 09:16:46;;;;;;;10.45;5.13;;;;;;;23.79;48.21;102020.88;3570815;40;20060;-64
2022/07/05 09:19:12;;;;;;;8.95;5.10;;;;;;;23.71;48.37;102037.25;3571369;40;20125;-63
2022/07/05 09:21:38;;;;;;;6.88;4.90;;;;;;;23.56;49.68;102031.34;3570444;40;20061;-64
2022/07/05 09:24:08;;;;;;;6.30;3.95;;;;;;;23.42;46.31;102033.72;3571768;40;20060;-64
2022/07/05 09:26:48;;;;;;;5.55;3.45;;;;;;;23.27;46.52;102036.94;3570193;40;20139;-64
2022/07/05 09:29:19;;;;;;;6.10;3.10;;;;;;;23.26;45.20;102029.72;3568903;40;20060;-64
2022/07/05 09:31:49;;;;;;;5.00;3.20;;;;;;;23.32;47.90;102033.75;3570249;40;20143;-66
2022/07/05 09:34:18;;;;;;;6.90;3.40;;;;;;;23.57;49.78;102027.59;3569349;40;20373;-64
2022/07/05 09:37:02;;;;;;;10.88;3.20;;;;;;;23.90;46.35;102028.06;3571805;40;20048;-67
2022/07/05 09:39:37;;;;;;;6.97;3.00;;;;;;;24.38;43.03;102031.50;3568945;40;20057;-70
2022/07/05 09:42:22;;;;;;;4.45;2.55;;;;;;;24.52;42.08;102023.63;3571219;40;20080;-68
2022/07/05 09:44:50;;;;;;;4.95;2.50;;;;;;;24.61;41.49;102027.31;3568730;40;20071;-67
2022/07/05 09:47:19;;;;;;;4.68;3.03;;;;;;;24.50;43.50;102016.56;3571325;40;20276;-67
2022/07/05 09:49:52;;;;;;;11.95;4.47;;;;;;;24.48;42.90;102015.84;3570224;40;20060;-67
2022/07/05 09:52:33;;;;;;;6.80;3.90;;;;;;;24.35;44.57;102012.56;3568280;40;20063;-67
2022/07/05 09:55:06;;;;;;;6.72;3.80;;;;;;;24.20;44.72;102010.38;3571623;40;20045;-66
2022/07/05 09:57:36;;;;;;;5.53;3.40;;;;;;;24.03;43.17;102000.22;3570674;40;20059;-68
2022/07/05 10:00:12;;;;;;;4.30;2.58;;;;;;;23.80;43.37;102006.13;3573332;40;20045;-67
2022/07/05 10:02:43;;;;;;;4.10;3.13;;;;;;;23.63;42.19;102010.53;3569435;40;21613;-66
2022/07/05 10:05:14;;;;;;;5.20;2.70;;;;;;;23.37;42.74;102010.34;3570700;40;20057;-68
2022/07/05 10:07:52;;;;;;;3.35;2.35;;;;;;;23.22;43.31;102011.84;3569447;40;20088;-67
2022/07/05 10:10:22;;;;;;;5.10;2.33;;;;;;;23.14;43.07;102009.81;3570912;40;20051;-67
2022/07/05 10:12:51;;;;;;;4.50;2.10;;;;;;;22.73;44.05;101931.50;3568453;40;20138;-68
2022/07/05 10:15:21;;;;;;;5.60;3.20;;;;;;;23.27;44.37;102017.72;3572771;40;20087;-66
2022/07/05 10:18:00;;;;;;;6.38;2.90;;;;;;;23.33;45.32;102028.09;3569688;40;20059;-67
2022/07/05 10:20:45;;;;;;;4.63;3.28;;;;;;;23.13;44.35;102012.72;3568812;40;20127;-69
2022/07/05 10:23:17;;;;;;;6.15;3.15;;;;;;;23.11;43.38;102028.47;3569972;40;20122;-67
2022/07/05 10:25:50;;;;;;;7.68;3.67;;;;;;;22.99;44.57;102016.78;3567869;40;20072;-67
2022/07/05 10:28:18;;;;;;;9.45;3.72;;;;;;;23.01;44.51;102016.66;3569367;40;20045;-66
2022/07/05 10:30:51;;;;;;;7.05;3.50;;;;;;;23.03;43.96;102017.38;3568481;40;20155;-66
2022/07/05 10:33:24;;;;;;;;;;;;;;;23.24;47.16;102020.75;3572561;40;20055;-66
2022/07/05 10:35:52;;;;;;;4.15;2.97;;;;;;;23.75;44.51;102024.94;3557861;40;19932;-66
2022/07/05 10:38:19;;;;;;;2.95;2.38;;;;;;;23.99;43.82;102026.28;3568369;40;20061;-67
2022/07/05 10:40:53;;;;;;;4.43;2.75;;;;;;;24.24;41.28;102020.03;3560958;40;20061;-66
2022/07/05 10:43:23;;;;;;;3.33;2.58;;;;;;;24.38;40.90;102023.25;3568600;40;20049;-65
2022/07/05 10:45:51;;;;;;;3.75;2.38;;;;;;;24.58;41.17;102018.50;3568393;40;20072;-65
2022/07/05 10:48:28;;;;;;;6.00;2.60;;;;;;;24.79;40.05;102019.91;3569922;40;20056;-65
2022/07/05 10:51:15;;;;;;;3.97;1.92;;;;;;;25.21;38.62;102019.25;3571025;40;20126;-66
2022/07/05 10:53:40;;;;;;;4.53;2.35;;;;;;;25.52;38.89;102009.59;3569508;40;20459;-65
2022/07/05 10:56:06;;;;;;;4.15;2.03;;;;;;;25.75;36.76;102002.47;3570758;40;20118;-67
2022/07/05 10:58:39;;;;;;;5.55;2.28;;;;;;;25.82;38.24;102006.34;3569468;40;20057;-65
2022/07/05 11:01:19;;;;;;;6.60;2.70;;;;;;;25.63;38.43;102023.09;3572079;40;20063;-67
2022/07/05 11:03:52;;;;;;;4.85;2.63;;;;;;;25.74;38.97;102019.16;3571169;40;20431;-65
2022/07/05 11:06:27;;;;;;;5.25;2.28;;;;;;;25.48;37.43;101952.09;3571528;40;20953;-65
2022/07/05 11:08:59;;;;;;;3.00;1.80;;;;;;;25.96;38.61;102020.50;3569454;40;20065;-65
2022/07/05 11:11:43;;;;;;;4.38;2.45;;;;;;;25.63;36.11;102023.94;3567632;40;20062;-67
2022/07/05 11:14:21;;;;;;;4.15;2.05;;;;;;;25.31;37.44;102023.75;3569464;40;20108;-65
2022/07/05 11:17:09;;;;;;;2.65;2.10;;;;;;;25.09;38.70;102028.75;3569614;40;20101;-65
2022/07/05 11:20:05;;;;;;;4.90;1.95;;;;;;;24.81;39.67;102032.66;3563966;40;20315;-68
2022/07/05 11:22:33;;;;;;;3.85;1.75;;;;;;;24.54;39.54;102031.69;3566297;40;20106;-67
2022/07/05 11:25:01;;;;;;;4.38;2.00;;;;;;;24.42;39.72;102032.94;3569383;40;20138;-63
2022/07/05 11:27:27;;;;;;;2.53;1.70;;;;;;;24.28;39.94;102024.19;3570085;40;20078;-62
2022/07/05 11:29:55;;;;;;;3.92;2.00;;;;;;;24.17;40.48;102021.69;3571136;40;20411;-63
2022/07/05 11:32:22;;;;;;;3.92;2.17;;;;;;;24.05;41.40;102009.19;3571060;40;20048;-65